Pharr, Texas
Current Conditions -  °F | °C
As of 2:53 PM on Sunday 23 Nov 2014 (Local Time) from KMFE Reporting Station
Clear Clear  
Wind Chill: 85°   Ceiling: Unl
Heat Index: 85°   Visibility: 10mi
Dew Point: 54°   Wind: 5mph
Humidity: 34%   Direction: 180°S
Pressure: 29.64"   Gusts: NA
Location:  26.19°N, 98.18°W
Report Text: KMFE 232053Z 18004KT 10SM CLR 29/12 A2964 RMK AO2 SLP035 T02940122 56032
Loading
Personal Weather Stations






























Interactive Weather Map New forecast layout! Learn more

10-Day Weather Forecast

Advertisements
Track Severe Weather on mobile